Time;durP1;ratioP1;P1;durP2;ratioP2;P2;SDS_P1;SDS_P2;PMS_P1;PMS_P2;Temp;Humidity;BMP_temperature;BMP_pressure;BME280_temperature;BME280_humidity;BME280_pressure;Samples;Min_cycle;Max_cycle;Signal;HPM_P1;HPM_P2
2023/02/24 00:00:50;;;;;;;;;79.00;56.33;;;;;6.78;85.82;99388.88;6312531;20;3650238;-49
2023/02/24 00:03:19;;;;;;;;;65.67;48.00;;;;;6.79;84.19;99387.97;6278445;20;3633634;-47
2023/02/24 00:05:49;;;;;;;;;62.33;48.00;;;;;6.77;84.81;99381.84;6315823;20;2857573;-45
2023/02/24 00:08:18;;;;;;;;;67.67;52.33;;;;;6.98;84.13;99384.34;6315267;20;3625269;-46
2023/02/24 00:10:48;;;;;;;;;71.33;55.33;;;;;6.93;85.53;99375.72;6311586;20;3634649;-47
2023/02/24 00:13:21;;;;;;;;;65.33;50.33;;;;;6.71;87.68;99382.13;6314165;20;3629427;-46
2023/02/24 00:16:03;;;;;;;;;64.00;52.00;;;;;6.66;88.43;99373.53;6315305;20;3634036;-45
2023/02/24 00:18:34;;;;;;;;;65.67;50.67;;;;;6.63;86.72;99370.97;6309764;20;3632542;-46
2023/02/24 00:21:12;;;;;;;;;66.00;51.00;;;;;6.65;86.76;99381.59;6313224;20;3637766;-45
2023/02/24 00:23:45;;;;;;;;;65.00;47.33;;;;;6.78;85.52;99383.56;6314828;20;3631670;-48
2023/02/24 00:26:16;;;;;;;;;57.67;46.00;;;;;6.68;85.82;99376.09;6314192;20;3623215;-48
2023/02/24 00:28:46;;;;;;;;;58.33;46.00;;;;;6.68;85.98;99371.63;6314538;20;2861782;-49
2023/02/24 00:31:18;;;;;;;;;71.00;52.33;;;;;6.66;86.47;99362.84;6313986;20;3637777;-45
2023/02/24 00:33:49;;;;;;;;;69.00;52.00;;;;;6.70;85.50;99367.06;6314881;20;3646073;-48
2023/02/24 00:36:24;;;;;;;;;69.00;50.67;;;;;6.70;85.67;99375.06;6314075;20;3640875;-47
2023/02/24 00:39:01;;;;;;;;;67.00;50.67;;;;;6.62;86.72;99365.75;6313092;20;3630666;-49
2023/02/24 00:41:32;;;;;;;;;58.00;46.00;;;;;6.78;85.02;99372.88;6310717;20;2868109;-48
2023/02/24 00:44:08;;;;;;;;;86.00;71.67;;;;;6.83;84.37;99361.97;6313460;20;3665318;-52
2023/02/24 00:46:45;;;;;;;;;103.67;91.33;;;;;6.54;85.83;99364.31;6279127;20;3674192;-46
2023/02/24 00:49:19;;;;;;;;;82.67;62.67;;;;;6.55;86.08;99354.50;6279491;20;3651432;-47
2023/02/24 00:51:53;;;;;;;;;66.00;52.67;;;;;6.62;86.27;99347.06;6314760;20;3629801;-46
2023/02/24 00:54:26;;;;;;;;;72.67;56.67;;;;;6.70;87.18;99352.88;6312704;20;3633633;-46
2023/02/24 00:56:56;;;;;;;;;71.33;54.00;;;;;6.76;86.54;99337.41;6315470;20;3628440;-49
2023/02/24 00:59:25;;;;;;;;;69.33;52.67;;;;;6.77;85.71;99352.47;6312473;20;3624218;-46
2023/02/24 01:01:55;;;;;;;;;68.00;52.00;;;;;6.81;86.45;99351.38;6312747;20;3644155;-49
2023/02/24 01:04:28;;;;;;;;;67.67;50.67;;;;;6.61;86.38;99351.56;6309672;20;3633620;-46
2023/02/24 01:07:00;;;;;;;;;66.67;51.33;;;;;6.76;86.31;99337.41;6314229;20;3634634;-48
2023/02/24 01:09:32;;;;;;;;;63.00;50.50;;;;;6.73;86.67;99331.38;6312040;20;3500297;-48
2023/02/24 01:14:52;;;;;;;;;61.33;52.00;;;;;6.68;88.27;99333.41;6311942;20;3622378;-49
2023/02/24 01:17:22;;;;;;;;;61.33;48.33;;;;;6.56;89.00;99330.44;6309894;20;2877406;-48
2023/02/24 01:19:53;;;;;;;;;64.00;49.00;;;;;6.53;89.51;99330.59;6312296;20;2871156;-47
2023/02/24 01:22:23;;;;;;;;;69.67;51.33;;;;;6.57;89.47;99326.81;6310688;20;3651426;-48
2023/02/24 01:24:52;;;;;;;;;60.33;46.33;;;;;6.63;88.61;99320.28;6279640;20;2871532;-46
2023/02/24 01:27:21;;;;;;;;;58.50;46.00;;;;;6.55;88.25;99317.16;6312997;20;2860242;-46
2023/02/24 01:29:50;;;;;;;;;60.50;47.00;;;;;6.49;89.85;99320.16;6280122;20;2863888;-46
2023/02/24 01:32:22;;;;;;;;;64.67;50.67;;;;;6.66;89.04;99312.16;6280244;20;3640436;-46
2023/02/24 01:34:52;;;;;;;;;64.33;51.67;;;;;6.52;90.29;99312.00;6312123;20;3623189;-45
2023/02/24 01:37:22;;;;;;;;;68.33;53.33;;;;;6.69;89.51;99308.44;6314766;20;2881679;-45
2023/02/24 01:39:53;;;;;;;;;66.67;50.67;;;;;6.66;89.36;99300.59;6317034;20;3642196;-48
2023/02/24 01:42:22;;;;;;;;;65.67;51.33;;;;;6.40;90.72;99301.94;6315716;20;3639925;-45
2023/02/24 01:44:52;;;;;;;;;66.67;49.33;;;;;6.58;89.84;99299.22;6315657;20;3626351;-45
2023/02/24 01:47:21;;;;;;;;;54.50;42.50;;;;;6.63;90.68;99290.97;6317236;20;2858679;-47
2023/02/24 01:49:54;;;;;;;;;69.00;49.00;;;;;6.50;89.08;99284.53;6285453;20;3636879;-47
2023/02/24 01:52:29;;;;;;;;;76.33;59.33;;;;;6.40;89.70;99280.59;6316843;20;3617983;-47
2023/02/24 01:55:09;;;;;;;;;79.67;59.33;;;;;6.36;91.10;99274.56;6313504;20;3653491;-48
2023/02/24 01:57:40;;;;;;;;;85.33;67.33;;;;;6.53;90.25;99276.38;6317022;20;3653509;-45
2023/02/24 02:00:30;;;;;;;;;65.33;50.00;;;;;6.20;92.51;99270.97;6284883;20;3650316;-46
2023/02/24 02:03:12;;;;;;;;;65.00;50.00;;;;;6.20;93.19;99274.50;6307446;20;3630515;-48
2023/02/24 02:05:47;;;;;;;;;66.33;52.00;;;;;6.28;91.83;99266.97;6299608;20;3648275;-45
2023/02/24 02:08:19;;;;;;;;;61.33;48.33;;;;;6.19;94.15;99267.44;6312817;20;3630514;-50
2023/02/24 02:10:57;;;;;;;;;73.00;55.33;;;;;6.15;93.34;99260.53;6314543;20;3634628;-44
2023/02/24 02:13:28;;;;;;;;;71.00;52.33;;;;;6.31;92.65;99268.63;6317348;20;3639847;-49
2023/02/24 02:16:38;;;;;;;;;70.00;53.33;;;;;6.22;92.60;99267.28;6316020;20;3630476;-45
2023/02/24 02:19:38;;;;;;;;;78.00;59.67;;;;;6.24;94.54;99260.09;6315883;20;3615902;-46
2023/02/24 02:23:01;;;;;;;;;75.67;56.00;;;;;6.26;93.00;99257.31;6317320;20;3636903;-47
2023/02/24 02:26:26;;;;;;;;;76.00;55.33;;;;;6.20;93.07;99252.31;6316611;20;3635796;-45
2023/02/24 02:29:46;;;;;;;;;71.33;53.00;;;;;6.32;92.90;99251.69;6313412;20;3629420;-45
2023/02/24 02:33:07;;;;;;;;;66.33;51.33;;;;;6.25;94.15;99251.13;6314558;20;3632975;-48
2023/02/24 02:36:12;;;;;;;;;62.67;47.33;;;;;6.18;94.26;99233.72;6317840;20;3632591;-45
2023/02/24 02:39:16;;;;;;;;;58.67;45.33;;;;;6.22;94.45;99240.63;6313252;20;3629522;-46
2023/02/24 02:42:23;;;;;;;;;55.00;45.67;;;;;6.35;95.03;99232.88;6315349;20;2863907;-48
2023/02/24 02:45:15;;;;;;;;;57.33;46.33;;;;;6.29;94.00;99230.50;6318278;20;2848272;-48
2023/02/24 02:48:22;;;;;;;;;64.00;46.00;;;;;5.94;94.69;99222.50;6314678;20;3623186;-48
2023/02/24 02:51:09;;;;;;;;;53.67;41.33;;;;;6.23;94.49;99215.69;6312677;20;2872436;-44
2023/02/24 02:54:15;;;;;;;;;58.00;46.00;;;;;6.16;95.09;99208.94;6313816;20;3621188;-47
2023/02/24 02:57:07;;;;;;;;;58.00;46.00;;;;;6.09;96.43;99207.56;6316700;20;2865890;-46
2023/02/24 03:00:20;;;;;;;;;60.67;48.33;;;;;6.10;95.72;99204.78;6312348;20;3610693;-46
2023/02/24 03:03:02;;;;;;;;;61.00;48.67;;;;;5.87;97.62;99200.63;6313961;20;2872267;-47
2023/02/24 03:05:55;;;;;;;;;64.00;46.67;;;;;5.97;98.14;99203.69;6316131;20;3639933;-46
2023/02/24 03:08:29;;;;;;;;;63.33;49.00;;;;;6.12;97.40;99194.06;6316223;20;2878512;-47
2023/02/24 03:11:04;;;;;;;;;59.00;45.00;;;;;5.90;98.36;99191.59;6313078;20;3620108;-48
2023/02/24 03:13:40;;;;;;;;;57.00;45.00;;;;;5.89;98.54;99187.19;6315392;20;2852357;-46
2023/02/24 03:16:11;;;;;;;;;54.00;43.00;;;;;6.07;97.64;99188.97;6282523;20;2864935;-48
2023/02/24 03:18:55;;;;;;;;;61.00;45.67;;;;;6.10;97.15;99182.63;6281879;20;3632664;-46
2023/02/24 03:21:44;;;;;;;;;58.00;45.50;;;;;5.99;96.81;99182.31;6314056;20;2861728;-46
2023/02/24 03:24:14;;;;;;;;;60.00;45.00;;;;;5.82;98.00;99176.00;6279693;20;3625309;-46
2023/02/24 03:27:05;;;;;;;;;53.67;42.00;;;;;5.83;98.24;99177.72;6313458;20;2873394;-45
2023/02/24 03:29:51;;;;;;;;;57.00;45.50;;;;;5.68;98.80;99170.50;6316423;20;2867984;-47
2023/02/24 03:32:42;;;;;;;;;53.00;39.67;;;;;5.77;98.74;99170.03;6281285;20;2864893;-49
2023/02/24 03:35:41;;;;;;;;;49.00;37.50;;;;;5.81;98.85;99176.06;6311396;20;2859741;-48
2023/02/24 03:38:13;;;;;;;;;55.00;41.50;;;;;5.89;98.95;99180.06;6282595;20;2870093;-47
2023/02/24 03:40:42;;;;;;;;;54.00;41.50;;;;;5.81;98.89;99176.91;6281190;20;2863974;-47
2023/02/24 03:43:29;;;;;;;;;49.50;41.00;;;;;5.92;99.71;99187.94;6282672;20;2856574;-45
2023/02/24 03:46:00;;;;;;;;;46.00;37.50;;;;;6.06;99.45;99181.91;6281320;20;2846249;-46
2023/02/24 03:48:29;;;;;;;;;54.50;39.50;;;;;6.07;98.26;99183.63;6281190;20;2863819;-46
2023/02/24 03:50:59;;;;;;;;;73.00;57.00;;;;;6.07;97.76;99177.44;6283341;20;3613810;-45
2023/02/24 03:54:29;;;;;;;;;65.33;50.00;;;;;6.13;97.44;99180.66;6312349;20;3631625;-48
2023/02/24 03:57:29;;;;;;;;;76.67;57.67;;;;;6.07;98.85;99172.97;6311160;20;3633580;-45
2023/02/24 04:00:51;;;;;;;;;58.00;45.00;;;;;6.25;97.26;99168.50;6300232;20;3625259;-46
2023/02/24 04:03:39;;;;;;;;;61.33;48.67;;;;;6.22;95.89;99159.81;6308283;20;3641022;-45
2023/02/24 04:06:33;;;;;;;;;66.00;49.67;;;;;5.97;97.68;99154.88;6309342;20;3636739;-45
2023/02/24 04:09:45;;;;;;;;;59.67;42.00;;;;;6.14;96.29;99146.88;6298353;20;3632598;-45
2023/02/24 04:12:41;;;;;;;;;63.67;47.00;;;;;6.03;96.90;99138.56;6311152;20;3640981;-45
2023/02/24 04:16:01;;;;;;;;;64.33;51.00;;;;;6.13;96.06;99127.38;6310313;20;3629603;-44
2023/02/24 04:18:32;;;;;;;;;88.67;67.67;;;;;6.06;96.77;99128.63;6307769;20;3673215;-44
2023/02/24 04:21:05;;;;;;;;;99.00;81.67;;;;;5.89;97.28;99137.44;6279522;20;3673212;-44
2023/02/24 04:23:42;;;;;;;;;81.00;59.33;;;;;5.94;97.76;99129.25;6278630;20;3646113;-44
2023/02/24 04:26:15;;;;;;;;;59.00;44.33;;;;;6.02;97.08;99120.84;6279195;20;2879747;-45
2023/02/24 04:28:48;;;;;;;;;56.50;46.00;;;;;6.08;98.33;99136.50;6311115;20;2866949;-46
2023/02/24 04:31:21;;;;;;;;;58.00;45.67;;;;;6.04;97.38;99143.81;6277354;20;2853561;-46
2023/02/24 04:33:52;;;;;;;;;56.67;44.00;;;;;5.68;97.72;99125.22;6310096;20;2860887;-46
2023/02/24 04:36:23;;;;;;;;;72.00;58.00;;;;;6.10;96.77;99121.31;6313947;20;3619087;-44
2023/02/24 04:38:53;;;;;;;;;90.33;68.00;;;;;6.08;95.96;99104.53;6315840;20;3676744;-44
2023/02/24 04:41:23;;;;;;;;;63.33;46.33;;;;;6.14;96.29;99104.22;6274282;20;3648190;-47
2023/02/24 04:43:52;;;;;;;;;55.67;42.00;;;;;5.78;97.25;99097.16;6310023;20;2867082;-45
2023/02/24 04:46:22;;;;;;;;;61.67;44.67;;;;;5.86;96.96;99104.78;6313967;20;2883722;-49
2023/02/24 04:48:51;;;;;;;;;64.33;49.00;;;;;5.98;97.40;99098.84;6313420;20;3631546;-46
2023/02/24 04:51:21;;;;;;;;;61.00;47.00;;;;;5.76;98.20;99093.72;6311520;20;3626839;-44
2023/02/24 04:53:54;;;;;;;;;65.33;51.00;;;;;5.92;97.31;99096.44;6311400;20;3633712;-47
2023/02/24 04:56:23;;;;;;;;;61.67;47.00;;;;;6.01;97.32;99095.16;6313086;20;3639867;-47
2023/02/24 04:58:53;;;;;;;;;58.00;47.33;;;;;6.01;97.71;99095.16;6311222;20;2852940;-45
2023/02/24 05:01:22;;;;;;;;;63.00;48.00;;;;;5.93;97.68;99101.75;6311848;20;3619080;-44
2023/02/24 05:03:52;;;;;;;;;56.67;44.33;;;;;5.83;97.29;99100.47;6315058;20;2875393;-45
2023/02/24 05:06:22;;;;;;;;;56.67;45.00;;;;;5.98;98.23;99088.19;6315542;20;2874313;-45
2023/02/24 05:08:51;;;;;;;;;61.00;46.00;;;;;5.94;97.12;99087.47;6312182;20;3633678;-45
2023/02/24 05:11:20;;;;;;;;;60.33;45.67;;;;;5.67;98.32;99079.09;6316355;20;3625267;-45
2023/02/24 05:13:50;;;;;;;;;56.75;45.75;;;;;5.79;98.17;99076.72;6279155;20;3610713;-45
2023/02/24 05:16:19;;;;;;;;;53.00;42.00;;;;;5.81;98.61;99075.69;6313562;20;2851477;-46
2023/02/24 05:18:48;;;;;;;;;56.50;44.50;;;;;5.81;99.46;99070.38;6283479;20;2861868;-45
2023/02/24 05:24:15;;;;;;;;;57.67;44.67;;;;;5.67;98.76;99063.09;6282173;20;2875488;-46
2023/02/24 05:26:45;;;;;;;;;56.00;41.67;;;;;5.75;99.54;99065.38;6311303;20;2860745;-45
2023/02/24 05:29:14;;;;;;;;;60.00;48.00;;;;;5.70;99.07;99062.09;6310266;20;2851479;-46
2023/02/24 05:31:44;;;;;;;;;59.67;47.67;;;;;5.88;98.48;99061.13;6282313;20;3610728;-45
2023/02/24 05:34:16;;;;;;;;;52.00;40.33;;;;;5.86;98.09;99059.47;6314154;20;2871159;-44
2023/02/24 05:36:47;;;;;;;;;71.00;56.00;;;;;5.62;98.82;99061.63;6313749;20;3652356;-43
2023/02/24 05:39:18;;;;;;;;;72.67;56.67;;;;;5.79;99.05;99061.59;6312349;20;3637848;-48
2023/02/24 05:41:49;;;;;;;;;56.00;44.50;;;;;5.83;99.71;99063.16;6311764;20;2862882;-46
2023/02/24 05:44:21;;;;;;;;;55.00;42.00;;;;;5.77;100.00;99068.81;6278284;20;2857606;-43
2023/02/24 05:46:57;;;;;;;;;55.33;43.00;;;;;5.83;100.00;99073.81;6281576;20;2861957;-46
2023/02/24 05:49:32;;;;;;;;;56.00;45.50;;;;;5.82;100.00;99064.13;6314146;20;2857699;-46
2023/02/24 05:52:08;;;;;;;;;59.67;43.33;;;;;5.89;99.65;99067.31;6278613;20;2869233;-47
2023/02/24 05:54:40;;;;;;;;;78.33;59.67;;;;;5.67;100.00;99059.59;6315646;20;3634654;-45
2023/02/24 05:57:19;;;;;;;;;319.00;258.75;;;;;5.89;100.00;99068.16;6281352;20;4500321;-46
2023/02/24 05:59:51;;;;;;;;;293.75;226.50;;;;;5.55;100.00;99058.41;6282342;20;3722225;-46
2023/02/24 06:02:26;;;;;;;;;202.50;162.50;;;;;5.49;100.00;99059.56;6280463;20;4489956;-48
2023/02/24 06:04:57;;;;;;;;;86.25;63.25;;;;;5.48;100.00;99052.53;6278488;20;3653593;-45
2023/02/24 06:07:33;;;;;;;;;84.00;62.00;;;;;5.76;100.00;99061.75;6312391;20;3664842;-50
2023/02/24 06:10:08;;;;;;;;;103.00;81.67;;;;;5.81;100.00;99066.84;6280452;20;3696135;-49
2023/02/24 06:12:38;;;;;;;;;89.00;67.33;;;;;5.92;100.00;99061.81;6280704;20;3677355;-46
2023/02/24 06:15:09;;;;;;;;;78.00;54.00;;;;;5.80;100.00;99052.69;6281367;20;3647110;-49
2023/02/24 06:17:38;;;;;;;;;85.67;65.67;;;;;5.77;100.00;99050.19;6310399;20;3665901;-49
2023/02/24 06:20:14;;;;;;;;;82.00;56.00;;;;;5.87;100.00;99054.09;6280990;20;3647150;-47
2023/02/24 06:22:44;;;;;;;;;67.67;49.67;;;;;5.81;100.00;99057.06;6277030;20;3652401;-48
2023/02/24 06:25:13;;;;;;;;;62.67;49.00;;;;;5.96;100.00;99057.25;6313285;20;3627487;-46
2023/02/24 06:27:43;;;;;;;;;61.67;46.33;;;;;6.00;100.00;99053.44;6318361;20;2890161;-46
2023/02/24 06:30:14;;;;;;;;;64.67;47.00;;;;;6.20;100.00;99057.72;6315368;20;3619093;-47
2023/02/24 06:32:43;;;;;;;;;60.00;49.00;;;;;6.09;100.00;99068.97;6318355;20;2864858;-46
2023/02/24 06:35:14;;;;;;;;;59.67;46.33;;;;;5.96;100.00;99062.56;6313680;20;2874313;-48
2023/02/24 06:37:44;;;;;;;;;62.67;50.33;;;;;5.88;100.00;99066.44;6318830;20;2870112;-46
2023/02/24 06:40:16;;;;;;;;;64.00;51.67;;;;;6.00;100.00;99064.09;6317397;20;3627380;-48
2023/02/24 06:42:55;;;;;;;;;68.00;50.67;;;;;6.08;100.00;99064.56;6317776;20;3645230;-48
2023/02/24 06:45:25;;;;;;;;;78.00;58.00;;;;;5.91;100.00;99060.97;6315637;20;3638952;-44
2023/02/24 06:47:55;;;;;;;;;73.00;54.67;;;;;5.92;100.00;99054.72;6317541;20;3638833;-47
2023/02/24 06:50:27;;;;;;;;;73.67;58.00;;;;;6.01;100.00;99055.19;6313623;20;3616940;-47
2023/02/24 06:52:59;;;;;;;;;70.67;53.00;;;;;6.06;100.00;99053.16;6318701;20;3628405;-45
2023/02/24 06:55:29;;;;;;;;;76.67;57.67;;;;;6.00;100.00;99050.78;6313967;20;3632590;-44
2023/02/24 06:58:04;;;;;;;;;65.00;48.00;;;;;6.49;100.00;99045.47;6318268;20;3638817;-47
2023/02/24 07:00:37;;;;;;;;;70.67;56.00;;;;;6.47;98.94;99044.69;6315744;20;3625350;-46
2023/02/24 07:03:15;;;;;;;;;63.33;50.33;;;;;6.58;98.32;99043.16;6316607;20;2874858;-45
2023/02/24 07:06:09;;;;;;;;;86.33;77.00;;;;;6.50;99.99;99042.75;6315614;20;3649271;-47
2023/02/24 07:08:40;;;;;;;;;84.50;70.50;;;;;6.26;100.00;99034.25;6317258;20;4404470;-46
2023/02/24 07:11:10;;;;;;;;;76.00;57.67;;;;;6.46;100.00;99035.84;6312554;20;3626302;-44
2023/02/24 07:13:40;;;;;;;;;89.00;68.67;;;;;6.67;100.00;99033.78;6317354;20;3677344;-45
2023/02/24 07:16:10;;;;;;;;;63.00;49.00;;;;;6.53;100.00;99031.00;6283628;20;2867995;-46
2023/02/24 07:18:41;;;;;;;;;61.33;48.00;;;;;6.86;99.15;99024.75;6315512;20;3621099;-46
2023/02/24 07:21:12;;;;;;;;;127.25;97.75;;;;;6.90;98.38;99028.94;6315639;20;3738990;-46
2023/02/24 07:23:48;;;;;;;;;80.67;59.67;;;;;6.88;98.56;99023.72;6283649;20;3660768;-48
2023/02/24 07:26:22;;;;;;;;;55.00;43.00;;;;;6.97;98.82;99017.81;6284374;20;2863911;-46
2023/02/24 07:28:53;;;;;;;;;55.00;43.00;;;;;6.77;98.63;99016.31;6285883;20;2856632;-46
2023/02/24 07:31:24;;;;;;;;;64.67;50.00;;;;;6.96;97.93;99009.94;6284562;20;3623225;-47
2023/02/24 07:33:56;;;;;;;;;65.67;49.00;;;;;6.93;96.92;99013.63;6314808;20;3635736;-45
2023/02/24 07:36:28;;;;;;;;;59.00;46.00;;;;;7.14;96.35;99016.00;6316817;20;3613830;-48
2023/02/24 07:39:00;;;;;;;;;75.67;55.67;;;;;7.23;96.30;99008.31;6316868;20;3645062;-47
2023/02/24 07:41:30;;;;;;;;;72.33;53.00;;;;;7.37;94.89;99002.16;6315104;20;3641924;-47
2023/02/24 07:44:02;;;;;;;;;75.67;57.33;;;;;7.55;94.67;98997.50;6315513;20;3641952;-47
2023/02/24 07:46:32;;;;;;;;;72.67;54.67;;;;;7.54;96.70;98998.47;6315324;20;3641921;-48
2023/02/24 07:49:03;;;;;;;;;59.00;44.67;;;;;7.48;95.52;98982.84;6282762;20;2876415;-48
2023/02/24 07:51:32;;;;;;;;;58.67;47.00;;;;;7.63;97.14;98976.53;6313162;20;2881620;-45
2023/02/24 07:54:03;;;;;;;;;56.33;45.33;;;;;7.72;96.85;98984.97;6315188;20;2865984;-48
2023/02/24 07:56:33;;;;;;;;;61.67;48.33;;;;;7.84;96.31;98979.69;6314874;20;3621095;-51
2023/02/24 07:59:08;;;;;;;;;60.33;48.67;;;;;7.81;95.60;98995.06;6316904;20;2870168;-47
2023/02/24 08:01:38;;;;;;;;;55.33;41.33;;;;;8.05;96.20;98996.22;6311012;20;2879547;-46
2023/02/24 08:04:11;;;;;;;;;60.67;47.00;;;;;8.19;94.73;98995.38;6315710;20;3613796;-47
2023/02/24 08:06:42;;;;;;;;;60.00;46.67;;;;;8.42;93.29;98985.91;6316411;20;3606524;-46
2023/02/24 08:09:19;;;;;;;;;56.67;46.00;;;;;8.43;94.82;98984.13;6314537;20;2864999;-47
2023/02/24 08:11:55;;;;;;;;;55.00;45.00;;;;;8.21;96.42;98981.91;6313688;20;2858691;-48
2023/02/24 08:14:43;;;;;;;;;62.33;50.00;;;;;8.02;98.13;98980.38;6281530;20;2866003;-46
2023/02/24 08:17:18;;;;;;;;;59.33;47.33;;;;;7.88;98.54;98977.72;6313361;20;3626326;-46
2023/02/24 08:20:20;;;;;;;;;56.00;45.00;;;;;8.08;99.09;98977.34;6316213;20;2871332;-47
2023/02/24 08:22:45;;;;;;;;;65.00;49.00;;;;;8.32;97.91;98979.38;6316529;20;3635736;-44
2023/02/24 08:25:21;;;;;;;;;60.33;47.33;;;;;8.82;96.34;98978.00;6309806;20;2869120;-45
2023/02/24 08:27:56;;;;;;;;;65.67;51.67;;;;;9.51;92.02;98980.53;6314307;20;3622170;-44
2023/02/24 08:30:43;;;;;;;;;73.33;53.00;;;;;9.68;90.65;98982.88;6314536;20;3630532;-45
2023/02/24 08:33:21;;;;;;;;;64.00;49.00;;;;;9.82;88.71;98982.81;6318454;20;3624238;-47
2023/02/24 08:35:59;;;;;;;;;40.00;31.50;;;;;9.88;89.17;98971.66;6282284;20;2850747;-48
2023/02/24 08:38:40;;;;;;;;;63.67;48.67;;;;;10.77;86.77;98976.00;6283763;20;3634651;-46
2023/02/24 08:41:18;;;;;;;;;64.00;50.33;;;;;10.45;87.60;98967.63;6314704;20;3626370;-47
2023/02/24 08:43:49;;;;;;;;;71.67;55.67;;;;;10.44;87.99;98970.41;6281872;20;3623272;-46
2023/02/24 08:46:31;;;;;;;;;57.67;47.33;;;;;11.14;84.53;98964.34;6312152;20;3627337;-48
2023/02/24 08:49:00;;;;;;;;;55.00;47.00;;;;;10.81;83.76;98960.50;6306809;20;2857687;-46
2023/02/24 08:51:42;;;;;;;;;60.67;47.00;;;;;11.58;82.19;98958.22;6277221;20;3639842;-48
2023/02/24 08:54:25;;;;;;;;;61.33;47.67;;;;;10.84;84.43;98952.22;6280404;20;3644121;-48
2023/02/24 08:57:06;;;;;;;;;59.33;47.33;;;;;10.66;84.39;98953.59;6277232;20;3630587;-46
2023/02/24 08:59:36;;;;;;;;;59.33;47.67;;;;;10.95;85.32;98959.47;6314065;20;3601451;-46
2023/02/24 09:05:09;;;;;;;;;63.33;49.67;;;;;10.62;85.19;98950.28;6282467;20;2883708;-45
2023/02/24 09:07:42;;;;;;;;;58.33;48.00;;;;;10.77;85.28;98948.31;6314986;20;2854580;-47
2023/02/24 09:10:17;;;;;;;;;61.00;49.33;;;;;10.98;83.90;98954.75;6313343;20;3613809;-48
2023/02/24 09:12:48;;;;;;;;;58.33;47.67;;;;;11.01;83.09;98945.59;6278199;20;3604471;-45
2023/02/24 09:15:19;;;;;;;;;60.33;46.67;;;;;11.28;82.75;98955.25;6315165;20;3632550;-48
2023/02/24 09:17:48;;;;;;;;;60.33;47.00;;;;;10.76;84.29;98943.88;6312237;20;3630467;-46
2023/02/24 09:23:06;;;;;;;;;53.67;46.00;;;;;10.94;83.75;98926.41;6315491;20;3615949;-46
2023/02/24 09:25:48;;;;;;;;;58.33;46.00;;;;;10.91;84.71;98925.78;6312997;20;3624243;-46
2023/02/24 09:28:23;;;;;;;;;59.67;46.67;;;;;10.97;85.54;98920.78;6315841;20;3615950;-45
2023/02/24 09:31:03;;;;;;;;;60.33;48.00;;;;;10.95;84.09;98922.75;6277456;20;3625354;-47
2023/02/24 09:33:40;;;;;;;;;55.33;46.33;;;;;10.92;84.43;98916.75;6312371;20;3605483;-46
2023/02/24 09:36:26;;;;;;;;;59.33;47.00;;;;;11.21;82.89;98922.59;6313314;20;2858754;-46
2023/02/24 09:41:52;;;;;;;;;60.67;48.00;;;;;11.52;80.44;98915.72;6310421;20;2875335;-47
2023/02/24 09:44:47;;;;;;;;;57.33;46.00;;;;;12.40;78.41;98909.66;6314777;20;3621147;-47
2023/02/24 09:50:44;;;;;;;;;50.67;42.00;;;;;12.70;77.15;98892.78;6279005;20;3590890;-44
2023/02/24 09:53:37;;;;;;;;;50.33;40.33;;;;;13.28;75.79;98899.69;6280950;20;2867067;-46
2023/02/24 09:56:35;;;;;;;;;57.33;46.33;;;;;13.36;75.98;98886.38;6312632;20;3630567;-47
2023/02/24 09:59:59;;;;;;;;;57.00;44.00;;;;;13.05;75.34;98885.41;6313203;20;3636747;-49
2023/02/24 10:03:41;;;;;;;;;57.00;44.67;;;;;13.66;75.22;98888.25;6285670;20;3620105;-47
2023/02/24 10:06:21;;;;;;;;;49.33;41.33;;;;;14.22;71.07;98881.56;6284470;20;3598187;-47
2023/02/24 10:09:12;;;;;;;;;55.00;44.00;;;;;13.68;74.07;98886.28;6285600;20;3617990;-46
2023/02/24 10:11:53;;;;;;;;;56.67;45.33;;;;;14.04;72.59;98884.06;6322001;20;3627509;-47
2023/02/24 10:14:39;;;;;;;;;55.00;42.67;;;;;13.66;71.70;98879.31;6286654;20;3627756;-46
2023/02/24 10:17:24;;;;;;;;;52.00;44.00;;;;;13.70;72.06;98873.53;6289634;20;3498157;-49
2023/02/24 10:24:04;;;;;;;;;56.33;44.67;;;;;13.83;71.71;98870.59;6319219;20;3627526;-51
2023/02/24 10:27:13;;;;;;;;;50.33;40.67;;;;;13.96;70.53;98865.00;6287066;20;3607579;-47
2023/02/24 10:30:39;;;;;;;;;56.67;44.33;;;;;13.71;70.33;98860.88;6283903;20;3625479;-43
2023/02/24 10:33:36;;;;;;;;;49.33;40.67;;;;;13.52;72.54;98851.72;6317637;20;2859779;-45
2023/02/24 10:36:15;;;;;;;;;57.00;43.75;;;;;13.88;70.35;98845.94;6319605;20;3619056;-45
2023/02/24 10:38:47;;;;;;;;;58.50;44.50;;;;;13.79;71.06;98843.03;6317737;20;3648266;-47
2023/02/24 10:41:16;;;;;;;;;49.00;38.33;;;;;13.91;68.47;98826.75;6319740;20;3609671;-44
2023/02/24 10:43:57;;;;;;;;;51.67;41.00;;;;;13.80;69.24;98825.88;6282935;20;3616984;-48
2023/02/24 10:46:33;;;;;;;;;51.00;43.00;;;;;13.83;70.23;98811.25;6316171;20;2855611;-47
2023/02/24 10:49:15;;;;;;;;;51.33;39.67;;;;;14.01;69.66;98823.09;6322151;20;3610713;-48
2023/02/24 10:51:52;;;;;;;;;51.33;39.33;;;;;13.69;70.78;98799.00;6282943;20;3609707;-46
2023/02/24 10:54:53;;;;;;;;;52.67;41.67;;;;;13.81;70.52;98797.03;6320694;20;3617472;-45
2023/02/24 10:57:35;;;;;;;;;54.33;43.67;;;;;14.19;69.40;98800.81;6283648;20;3614900;-45
2023/02/24 11:00:43;;;;;;;;;54.00;44.00;;;;;14.66;68.10;98787.53;6320513;20;3623193;-45
2023/02/24 11:03:13;;;;;;;;;51.33;42.67;;;;;15.01;64.90;98781.53;6290911;20;3590916;-45
2023/02/24 11:06:29;;;;;;;;;52.67;43.67;;;;;14.53;65.55;98777.00;6287350;20;3619034;-48
2023/02/24 11:17:13;;;;;;;;;42.33;36.00;;;;;15.26;63.85;98768.38;6285032;20;3595137;-46
2023/02/24 11:17:25;;;;;;;;;56.33;44.33;;;;;15.19;64.44;98759.13;6284803;20;3605570;-47
2023/02/24 11:20:19;;;;;;;;;51.33;42.33;;;;;15.03;64.21;98749.78;6316805;20;3603379;-47
2023/02/24 11:22:54;;;;;;;;;56.67;45.00;;;;;14.85;65.30;98738.00;6282962;20;3618307;-48
2023/02/24 11:25:38;;;;;;;;;53.00;42.33;;;;;15.22;64.70;98739.91;6315609;20;3603774;-47
2023/02/24 11:29:43;;;;;;;;;49.33;39.00;;;;;14.62;65.77;98740.19;6281701;20;3612919;-47
2023/02/24 11:32:48;;;;;;;;;49.33;42.00;;;;;14.86;64.98;98734.34;6315425;20;3613957;-48
2023/02/24 11:35:21;;;;;;;;;52.67;43.00;;;;;14.66;65.71;98737.03;6286480;20;3607580;-44
2023/02/24 11:38:26;;;;;;;;;58.33;45.67;;;;;14.57;66.43;98735.22;6282035;20;3620039;-45
2023/02/24 11:41:26;;;;;;;;;49.00;42.00;;;;;14.14;67.19;98731.06;6317056;20;3595071;-47
2023/02/24 11:44:48;;;;;;;;;48.00;36.33;;;;;13.89;68.84;98734.28;6283262;20;3605621;-47
2023/02/24 11:47:30;;;;;;;;;51.33;42.67;;;;;13.91;67.94;98710.72;6310828;20;3615933;-45
2023/02/24 11:50:42;;;;;;;;;51.67;42.00;;;;;14.12;68.30;98719.56;6281522;20;3594040;-49
2023/02/24 11:53:45;;;;;;;;;51.67;42.67;;;;;14.68;65.88;98715.28;6315500;20;3601320;-45
2023/02/24 11:56:44;;;;;;;;;56.00;44.00;;;;;14.87;66.46;98714.41;6283209;20;3621103;-45
2023/02/24 11:59:32;;;;;;;;;53.00;39.67;;;;;15.39;64.67;98714.81;6315864;20;3610681;-48
2023/02/24 12:02:45;;;;;;;;;54.00;41.00;;;;;14.93;63.97;98706.56;6280801;20;3626313;-45
2023/02/24 12:05:35;;;;;;;;;51.67;43.00;;;;;14.77;63.19;98705.47;6317736;20;3614849;-48
2023/02/24 12:08:32;;;;;;;;;52.67;42.00;;;;;15.28;62.74;98709.59;6280871;20;3610831;-46
2023/02/24 12:11:32;;;;;;;;;46.00;39.00;;;;;15.11;61.86;98701.28;6314253;20;3587771;-45
2023/02/24 12:14:29;;;;;;;;;41.33;32.00;;;;;15.20;62.18;98695.97;6293161;20;3628382;-49
2023/02/24 12:17:34;;;;;;;;;49.33;40.33;;;;;14.54;65.68;98681.47;6284162;20;2858770;-45
2023/02/24 12:20:39;;;;;;;;;48.00;39.00;;;;;14.46;67.26;98682.16;6315915;20;3593992;-45
2023/02/24 12:23:40;;;;;;;;;52.00;41.33;;;;;14.22;67.03;98679.91;6282752;20;3609685;-45
2023/02/24 12:26:54;;;;;;;;;53.00;40.67;;;;;14.69;66.79;98677.34;6313086;20;3607610;-45
2023/02/24 12:30:05;;;;;;;;;56.00;46.00;;;;;14.81;66.08;98666.34;6283254;20;3618384;-48
2023/02/24 12:33:12;;;;;;;;;53.00;44.00;;;;;15.01;65.31;98668.00;6319908;20;3620074;-46
2023/02/24 12:36:01;;;;;;;;;45.00;39.00;;;;;14.88;65.93;98662.91;6285757;20;3583600;-59